Time;durP1;ratioP1;P1;durP2;ratioP2;P2;SDS_P1;SDS_P2;PMS_P1;PMS_P2;Temp;Humidity;BMP_temperature;BMP_pressure;BME280_temperature;BME280_humidity;BME280_pressure;Samples;Min_cycle;Max_cycle;Signal;HPM_P1;HPM_P2
2021/10/31 00:02:43;;;;;;;10.70;4.73;;;;;;;;;;10357270;28;20150;-62
2021/10/31 00:07:40;;;;;;;10.83;6.80;;;;;;;;;;10369626;28;20028;-60
2021/10/31 00:12:38;;;;;;;13.97;6.90;;;;;;;;;;10364091;28;20039;-60
2021/10/31 00:17:35;;;;;;;8.60;5.90;;;;;;;;;;10382025;28;20032;-61
2021/10/31 00:22:32;;;;;;;12.47;6.77;;;;;;;;;;10364127;28;20519;-61
2021/10/31 00:27:30;;;;;;;11.13;6.83;;;;;;;;;;10382566;28;20070;-62
2021/10/31 00:32:27;;;;;;;13.30;6.93;;;;;;;;;;10388358;28;20553;-63
2021/10/31 00:37:25;;;;;;;11.87;6.83;;;;;;;;;;10367097;28;20628;-62
2021/10/31 00:42:22;;;;;;;11.83;6.30;;;;;;;;;;10375219;28;20035;-62
2021/10/31 00:47:20;;;;;;;12.50;6.67;;;;;;;;;;10376921;28;20113;-60
2021/10/31 00:52:17;;;;;;;12.70;7.73;;;;;;;;;;10378386;28;20044;-62
2021/10/31 00:57:15;;;;;;;8.60;5.97;;;;;;;;;;10361688;28;20124;-60
2021/10/31 01:02:15;;;;;;;9.32;5.35;;;;;;;;;;10375091;28;20590;-60
2021/10/31 01:07:35;;;;;;;12.02;6.32;;;;;;;;;;10376704;28;20553;-61
2021/10/31 01:13:05;;;;;;;13.25;6.80;;;;;;;;;;10361373;28;20474;-62
2021/10/31 01:18:21;;;;;;;9.25;5.03;;;;;;;;;;10357251;28;20047;-62
2021/10/31 01:23:31;;;;;;;9.27;6.32;;;;;;;;;;10387467;28;20037;-67
2021/10/31 01:28:42;;;;;;;11.43;6.50;;;;;;;;;;10380634;28;20052;-61
2021/10/31 01:34:12;;;;;;;11.63;6.15;;;;;;;;;;10373971;28;20041;-62
2021/10/31 01:39:23;;;;;;;11.88;6.97;;;;;;;;;;10340597;28;20555;-61
2021/10/31 01:44:27;;;;;;;12.27;6.43;;;;;;;;;;10384541;28;20028;-61
2021/10/31 01:49:40;;;;;;;12.82;6.70;;;;;;;;;;10374387;28;20576;-62
2021/10/31 01:54:41;;;;;;;11.15;5.88;;;;;;;;;;10371597;28;20537;-61
2021/10/31 01:59:44;;;;;;;11.70;5.40;;;;;;;;;;10365045;28;20522;-62
2021/10/31 02:04:44;;;;;;;7.88;4.15;;;;;;;;;;10377500;28;20036;-61
2021/10/31 02:09:42;;;;;;;12.23;5.82;;;;;;;;;;10373295;28;20083;-62
2021/10/31 02:14:39;;;;;;;9.90;5.93;;;;;;;;;;10377550;28;20071;-62
2021/10/31 02:19:41;;;;;;;6.97;4.63;;;;;;;;;;10372424;28;20036;-62
2021/10/31 02:24:39;;;;;;;10.38;5.20;;;;;;;;;;10381346;28;20409;-64
2021/10/31 02:29:43;;;;;;;11.33;4.67;;;;;;;;;;10380765;28;20063;-62
2021/10/31 02:34:41;;;;;;;11.85;4.40;;;;;;;;;;10387122;28;20442;-63
2021/10/31 02:39:38;;;;;;;4.13;2.30;;;;;;;;;;10372510;28;20395;-62
2021/10/31 02:44:36;;;;;;;4.97;3.47;;;;;;;;;;10377922;28;20032;-61
2021/10/31 02:49:33;;;;;;;8.90;4.20;;;;;;;;;;10369305;28;20037;-61
2021/10/31 02:54:34;;;;;;;4.10;3.30;;;;;;;;;;10382735;28;20391;-62
2021/10/31 02:59:42;;;;;;;7.40;4.13;;;;;;;;;;10372976;28;20043;-60
2021/10/31 03:04:39;;;;;;;6.30;2.95;;;;;;;;;;10372412;28;20040;-61
2021/10/31 03:09:37;;;;;;;5.47;3.53;;;;;;;;;;10376583;28;20502;-62
2021/10/31 03:14:35;;;;;;;4.60;2.83;;;;;;;;;;10373759;28;20032;-61
2021/10/31 03:19:33;;;;;;;3.75;2.53;;;;;;;;;;10378211;28;20488;-61
2021/10/31 03:24:30;;;;;;;7.72;4.53;;;;;;;;;;10377505;28;20063;-60
2021/10/31 03:29:28;;;;;;;7.13;3.93;;;;;;;;;;10373720;28;20136;-60
2021/10/31 03:34:25;;;;;;;3.37;2.80;;;;;;;;;;10392051;28;20039;-62
2021/10/31 03:39:23;;;;;;;7.67;3.67;;;;;;;;;;10381814;28;20042;-62
2021/10/31 03:44:22;;;;;;;8.80;3.20;;;;;;;;;;10369523;28;20029;-61
2021/10/31 03:49:19;;;;;;;7.60;4.18;;;;;;;;;;10379343;28;20094;-61
2021/10/31 03:54:16;;;;;;;8.87;3.43;;;;;;;;;;10371830;28;20110;-62
2021/10/31 03:59:14;;;;;;;8.17;4.63;;;;;;;;;;10355776;28;20418;-62
2021/10/31 04:04:11;;;;;;;7.00;4.80;;;;;;;;;;10369305;28;20139;-61
2021/10/31 04:09:09;;;;;;;7.67;2.87;;;;;;;;;;10383846;28;20037;-63
2021/10/31 04:14:06;;;;;;;10.93;4.93;;;;;;;;;;10359551;28;20037;-61
2021/10/31 04:19:03;;;;;;;11.50;3.30;;;;;;;;;;10359228;28;20109;-61
2021/10/31 04:24:01;;;;;;;12.03;5.77;;;;;;;;;;10372562;28;20512;-61
2021/10/31 04:28:58;;;;;;;7.83;4.10;;;;;;;;;;10389786;28;20048;-63
2021/10/31 04:33:56;;;;;;;8.47;4.93;;;;;;;;;;10390802;28;20043;-60
2021/10/31 04:38:55;;;;;;;15.23;7.50;;;;;;;;;;10392033;28;20073;-61
2021/10/31 04:43:53;;;;;;;13.05;7.28;;;;;;;;;;10381652;28;20036;-59
2021/10/31 04:48:50;;;;;;;13.33;7.60;;;;;;;;;;10388881;28;20031;-60
2021/10/31 04:53:48;;;;;;;14.50;7.73;;;;;;;;;;10389767;28;20028;-61
2021/10/31 04:58:45;;;;;;;15.97;7.60;;;;;;;;;;10387315;28;20451;-61
2021/10/31 05:03:43;;;;;;;16.30;7.83;;;;;;;;;;10388902;28;20470;-60
2021/10/31 05:08:41;;;;;;;15.93;7.72;;;;;;;;;;10387572;28;20029;-61
2021/10/31 05:13:39;;;;;;;16.27;7.53;;;;;;;;;;10396720;28;20025;-61
2021/10/31 05:18:37;;;;;;;13.90;7.53;;;;;;;;;;10379970;28;20032;-61
2021/10/31 05:23:34;;;;;;;15.67;7.83;;;;;;;;;;10395557;28;20016;-58
2021/10/31 05:28:32;;;;;;;21.37;8.37;;;;;;;;;;10396300;28;20404;-60
2021/10/31 05:33:29;;;;;;;12.20;6.80;;;;;;;;;;10392471;28;20686;-60
2021/10/31 05:38:27;;;;;;;15.03;6.07;;;;;;;;;;10394618;28;20051;-61
2021/10/31 05:43:25;;;;;;;14.50;6.47;;;;;;;;;;10391513;28;20043;-60
2021/10/31 05:48:23;;;;;;;14.32;8.00;;;;;;;;;;10388804;28;20032;-60
2021/10/31 05:53:20;;;;;;;10.13;5.75;;;;;;;;;;10376225;28;20051;-59
2021/10/31 05:58:18;;;;;;;12.98;6.75;;;;;;;;;;10380708;28;20039;-58
2021/10/31 06:03:15;;;;;;;8.90;5.37;;;;;;;;;;10378434;28;20500;-59
2021/10/31 06:08:15;;;;;;;18.83;10.10;;;;;;;;;;10339155;28;20048;-64
2021/10/31 06:13:12;;;;;;;16.85;8.98;;;;;;;;;;10349958;28;20132;-62
2021/10/31 06:18:09;;;;;;;20.43;10.27;;;;;;;;;;10375205;28;20119;-63
2021/10/31 06:23:07;;;;;;;20.00;10.03;;;;;;;;;;10360851;28;20459;-64
2021/10/31 06:28:04;;;;;;;25.30;9.70;;;;;;;;;;10357922;28;20055;-61
2021/10/31 06:33:02;;;;;;;24.43;10.80;;;;;;;;;;10371000;28;20032;-64
2021/10/31 06:38:01;;;;;;;19.27;9.70;;;;;;;;;;10353322;28;20033;-64
2021/10/31 06:42:58;;;;;;;19.60;9.82;;;;;;;;;;10352606;28;20655;-61
2021/10/31 06:47:56;;;;;;;23.40;10.47;;;;;;;;;;10361647;28;20463;-63
2021/10/31 06:52:53;;;;;;;22.00;11.17;;;;;;;;;;10360842;28;20028;-62
2021/10/31 06:57:50;;;;;;;21.10;9.30;;;;;;;;;;10361239;28;20040;-64
2021/10/31 07:02:48;;;;;;;25.93;11.90;;;;;;;;;;10369724;28;20086;-64
2021/10/31 07:07:45;;;;;;;25.13;11.27;;;;;;;;;;10362916;28;20041;-64
2021/10/31 07:12:43;;;;;;;21.27;10.67;;;;;;;;;;10365216;28;20156;-64
2021/10/31 07:17:41;;;;;;;27.40;11.00;;;;;;;;;;10368823;27;20028;-62
2021/10/31 07:22:38;;;;;;;19.90;9.60;;;;;;;;;;10366656;28;20037;-63
2021/10/31 07:27:36;;;;;;;18.93;9.03;;;;;;;;;;10370689;28;20032;-62
2021/10/31 07:32:33;;;;;;;21.63;9.37;;;;;;;;;;10381636;28;20041;-61
2021/10/31 07:37:31;;;;;;;20.43;10.27;;;;;;;;;;10375537;28;20028;-63
2021/10/31 07:42:28;;;;;;;18.93;9.63;;;;;;;;;;10363120;28;20406;-65
2021/10/31 07:47:26;;;;;;;21.47;10.63;;;;;;;;;;10362340;28;20029;-62
2021/10/31 07:52:23;;;;;;;19.47;9.47;;;;;;;;;;10371916;28;20029;-62
2021/10/31 07:57:24;;;;;;;19.83;10.83;;;;;;;;;;10372657;28;20040;-63
2021/10/31 08:02:22;;;;;;;21.55;10.00;;;;;;;;;;10369297;28;20076;-63
2021/10/31 08:07:26;;;;;;;23.27;11.07;;;;;;;;;;10372524;28;20124;-60
2021/10/31 08:12:25;;;;;;;26.08;11.25;;;;;;;;;;10374230;28;20087;-64
2021/10/31 08:17:23;;;;;;;19.38;9.40;;;;;;;;;;10327250;28;20044;-61
2021/10/31 08:22:20;;;;;;;20.40;9.37;;;;;;;;;;10352077;28;20045;-62
2021/10/31 08:27:17;;;;;;;17.00;8.50;;;;;;;;;;10368759;28;20028;-62
2021/10/31 08:32:15;;;;;;;19.00;8.87;;;;;;;;;;10368520;28;20125;-62
2021/10/31 08:37:12;;;;;;;15.90;8.77;;;;;;;;;;10363613;28;20044;-62
2021/10/31 08:42:12;;;;;;;14.20;8.33;;;;;;;;;;10359133;28;20037;-62
2021/10/31 08:47:09;;;;;;;22.10;9.82;;;;;;;;;;10367239;28;20036;-61
2021/10/31 08:52:07;;;;;;;17.57;9.20;;;;;;;;;;10355042;28;20032;-63
2021/10/31 08:57:06;;;;;;;12.85;6.50;;;;;;;;;;10353991;28;22102;-62
2021/10/31 09:02:04;;;;;;;28.30;11.52;;;;;;;;;;10362296;28;20037;-62
2021/10/31 09:07:02;;;;;;;30.70;12.98;;;;;;;;;;10354070;28;20035;-61
2021/10/31 09:12:00;;;;;;;17.38;7.95;;;;;;;;;;10364922;28;20033;-62
2021/10/31 09:16:58;;;;;;;15.82;7.10;;;;;;;;;;10360786;28;20036;-62
2021/10/31 09:21:55;;;;;;;15.17;6.40;;;;;;;;;;10373309;28;20044;-63
2021/10/31 09:26:52;;;;;;;11.67;6.47;;;;;;;;;;10371049;28;20082;-62
2021/10/31 09:31:50;;;;;;;14.63;7.17;;;;;;;;;;10377286;28;20036;-62
2021/10/31 09:36:47;;;;;;;12.93;6.70;;;;;;;;;;10358240;28;20382;-61
2021/10/31 09:41:45;;;;;;;10.47;6.13;;;;;;;;;;10362873;28;20120;-63
2021/10/31 09:46:43;;;;;;;11.80;7.10;;;;;;;;;;10368498;28;20037;-62
2021/10/31 09:51:43;;;;;;;11.75;6.35;;;;;;;;;;10369766;28;20123;-61
2021/10/31 09:56:41;;;;;;;14.82;7.78;;;;;;;;;;10353334;28;20123;-62
2021/10/31 10:01:49;;;;;;;14.70;5.90;;;;;;;;;;10363991;28;20028;-63
2021/10/31 10:06:50;;;;;;;20.10;8.25;;;;;;;;;;10367179;28;20029;-60
2021/10/31 10:11:48;;;;;;;22.25;10.68;;;;;;;;;;10346100;28;20594;-61
2021/10/31 10:16:47;;;;;;;24.13;11.60;;;;;;;;;;10373444;28;20044;-62
2021/10/31 10:21:44;;;;;;;;;;;;;;;;;;10348167;28;20067;-62
2021/10/31 10:26:43;;;;;;;18.52;9.48;;;;;;;;;;10373072;28;20151;-64
2021/10/31 10:31:41;;;;;;;18.92;10.98;;;;;;;;;;10366255;28;20040;-61
2021/10/31 10:36:40;;;;;;;22.45;12.20;;;;;;;;;;10369778;28;20043;-65
2021/10/31 10:41:39;;;;;;;22.38;11.88;;;;;;;;;;10379206;28;20044;-63
2021/10/31 10:46:37;;;;;;;19.15;11.18;;;;;;;;;;10364034;28;20396;-63
2021/10/31 10:51:34;;;;;;;18.30;9.83;;;;;;;;;;10360849;28;20040;-64
2021/10/31 10:56:32;;;;;;;17.43;9.37;;;;;;;;;;10363865;28;20036;-63
2021/10/31 11:01:30;;;;;;;22.85;8.88;;;;;;;;;;10362716;28;20036;-63
2021/10/31 11:06:27;;;;;;;16.50;7.63;;;;;;;;;;10370193;28;20041;-64
2021/10/31 11:11:27;;;;;;;10.20;4.87;;;;;;;;;;10360684;28;20035;-63
2021/10/31 11:16:25;;;;;;;14.82;7.75;;;;;;;;;;10364156;28;20086;-64
2021/10/31 11:21:22;;;;;;;11.27;5.57;;;;;;;;;;10368522;28;20391;-63
2021/10/31 11:26:20;;;;;;;9.33;5.77;;;;;;;;;;10352240;28;20055;-62
2021/10/31 11:31:18;;;;;;;6.63;4.40;;;;;;;;;;10372761;28;20411;-63
2021/10/31 11:36:16;;;;;;;12.73;6.20;;;;;;;;;;10367262;28;20036;-64
2021/10/31 11:41:15;;;;;;;;;;;;;;;;;;10356878;28;20048;-63
2021/10/31 11:46:12;;;;;;;12.20;5.67;;;;;;;;;;10359920;28;19967;-64
2021/10/31 11:51:12;;;;;;;12.10;6.27;;;;;;;;;;10366855;28;20571;-64
2021/10/31 11:56:22;;;;;;;7.70;5.13;;;;;;;;;;10354561;28;20043;-64
2021/10/31 12:01:50;;;;;;;5.18;2.85;;;;;;;;;;10372457;28;20044;-66
2021/10/31 12:06:49;;;;;;;7.57;4.13;;;;;;;;;;10355329;28;20455;-64
2021/10/31 12:11:47;;;;;;;;;;;;;;;;;;10361498;28;20032;-63
2021/10/31 12:17:03;;;;;;;4.70;2.75;;;;;;;;;;10355060;28;19923;-63
2021/10/31 12:22:04;;;;;;;9.55;4.30;;;;;;;;;;10367609;28;20568;-62
2021/10/31 12:27:08;;;;;;;5.20;3.08;;;;;;;;;;10377023;28;20036;-64
2021/10/31 12:32:13;;;;;;;4.97;2.08;;;;;;;;;;10374527;28;20077;-64
2021/10/31 12:37:21;;;;;;;4.85;2.40;;;;;;;;;;10362230;28;20421;-63
2021/10/31 12:42:19;;;;;;;5.20;2.28;;;;;;;;;;10358152;28;20105;-63
2021/10/31 12:47:24;;;;;;;3.72;2.30;;;;;;;;;;10378702;28;20090;-63
2021/10/31 12:52:23;;;;;;;4.40;2.28;;;;;;;;;;10367662;28;20585;-65
2021/10/31 12:57:20;;;;;;;1.70;1.50;;;;;;;;;;10371212;28;20054;-64
2021/10/31 13:02:22;;;;;;;7.60;1.67;;;;;;;;;;10366366;28;20037;-61
2021/10/31 13:07:24;;;;;;;6.75;2.13;;;;;;;;;;10366332;28;20047;-62
2021/10/31 13:12:27;;;;;;;3.30;1.90;;;;;;;;;;10378226;28;20063;-63
2021/10/31 13:17:30;;;;;;;2.92;2.17;;;;;;;;;;10365014;28;20036;-61
2021/10/31 13:22:27;;;;;;;3.92;2.33;;;;;;;;;;10378312;28;20044;-62
2021/10/31 13:27:25;;;;;;;4.17;2.13;;;;;;;;;;10359736;28;20058;-63
2021/10/31 13:32:24;;;;;;;5.73;2.37;;;;;;;;;;10370749;28;20028;-63
2021/10/31 13:37:23;;;;;;;3.70;2.38;;;;;;;;;;10365318;28;20037;-63
2021/10/31 13:42:28;;;;;;;3.85;2.42;;;;;;;;;;10363638;28;20417;-63
2021/10/31 13:47:41;;;;;;;4.50;2.17;;;;;;;;;;10371761;28;20032;-64
2021/10/31 13:52:40;;;;;;;5.70;2.60;;;;;;;;;;10345987;28;20379;-64
2021/10/31 13:57:40;;;;;;;4.25;2.67;;;;;;;;;;10365012;28;20038;-63
2021/10/31 14:02:39;;;;;;;4.68;2.97;;;;;;;;;;10348926;28;20148;-63
2021/10/31 14:07:36;;;;;;;;;;;;;;;;;;10365086;28;20040;-61
2021/10/31 14:12:34;;;;;;;5.63;2.60;;;;;;;;;;10359701;28;19923;-61
2021/10/31 14:17:33;;;;;;;3.22;2.25;;;;;;;;;;10366993;28;20037;-64
2021/10/31 14:22:44;;;;;;;3.20;2.10;;;;;;;;;;10360627;28;20472;-63
2021/10/31 14:27:44;;;;;;;3.05;1.50;;;;;;;;;;10372008;28;20128;-63
2021/10/31 14:32:47;;;;;;;2.88;2.58;;;;;;;;;;10355424;28;20036;-63
2021/10/31 14:38:02;;;;;;;3.60;2.65;;;;;;;;;;10368960;28;20460;-61
2021/10/31 14:43:14;;;;;;;3.40;2.35;;;;;;;;;;10368951;28;20112;-64
2021/10/31 14:48:19;;;;;;;4.25;3.22;;;;;;;;;;10361251;28;20497;-64
2021/10/31 14:53:17;;;;;;;2.83;2.30;;;;;;;;;;10356202;28;20074;-63
2021/10/31 14:58:15;;;;;;;2.33;2.08;;;;;;;;;;10362032;28;20036;-61
2021/10/31 15:03:13;;;;;;;3.78;2.08;;;;;;;;;;10352690;28;20033;-59
2021/10/31 15:08:12;;;;;;;6.20;3.33;;;;;;;;;;10368082;28;20490;-63
2021/10/31 15:13:09;;;;;;;4.32;2.72;;;;;;;;;;10359196;28;20087;-60
2021/10/31 15:18:07;;;;;;;5.27;3.53;;;;;;;;;;10363019;28;20123;-61
2021/10/31 15:23:04;;;;;;;5.10;3.27;;;;;;;;;;10343574;28;20086;-63
2021/10/31 15:28:02;;;;;;;5.40;3.37;;;;;;;;;;10364725;28;20028;-63
2021/10/31 15:33:01;;;;;;;6.37;3.47;;;;;;;;;;10360113;28;20422;-64
2021/10/31 15:37:58;;;;;;;3.80;3.30;;;;;;;;;;10360146;28;20036;-63
2021/10/31 15:42:56;;;;;;;5.07;3.30;;;;;;;;;;10352478;28;20032;-63
2021/10/31 15:47:53;;;;;;;5.57;2.90;;;;;;;;;;10353134;28;20150;-64
2021/10/31 15:52:51;;;;;;;4.63;3.17;;;;;;;;;;10345865;28;20040;-62
2021/10/31 15:57:48;;;;;;;3.37;2.47;;;;;;;;;;10360015;28;20033;-61
2021/10/31 16:02:49;;;;;;;4.40;2.90;;;;;;;;;;10349756;28;20040;-62
2021/10/31 16:07:46;;;;;;;5.13;3.45;;;;;;;;;;10360889;28;20028;-62
2021/10/31 16:12:44;;;;;;;5.73;2.97;;;;;;;;;;10359797;28;20422;-63
2021/10/31 16:17:42;;;;;;;5.38;3.25;;;;;;;;;;10356768;28;20114;-64
2021/10/31 16:22:41;;;;;;;5.40;3.13;;;;;;;;;;10358068;28;20445;-63
2021/10/31 16:27:39;;;;;;;4.05;2.50;;;;;;;;;;10361375;28;20040;-61
2021/10/31 16:32:37;;;;;;;3.60;2.77;;;;;;;;;;10344095;28;20044;-63
2021/10/31 16:37:35;;;;;;;4.68;3.25;;;;;;;;;;10353141;28;20866;-63
2021/10/31 16:42:33;;;;;;;4.18;2.97;;;;;;;;;;10350548;28;20052;-63
2021/10/31 16:47:31;;;;;;;6.25;2.55;;;;;;;;;;10350729;28;20037;-63
2021/10/31 16:52:28;;;;;;;5.28;2.78;;;;;;;;;;10357175;28;20098;-62
2021/10/31 16:57:26;;;;;;;2.53;2.33;;;;;;;;;;10343816;28;20035;-62
2021/10/31 17:02:26;;;;;;;3.70;3.07;;;;;;;;;;10369485;28;20410;-61
2021/10/31 17:07:25;;;;;;;2.50;2.15;;;;;;;;;;10376923;28;20067;-62
2021/10/31 17:12:27;;;;;;;4.53;3.10;;;;;;;;;;10368572;28;20029;-61
2021/10/31 17:17:25;;;;;;;4.43;2.43;;;;;;;;;;10363954;28;20661;-61
2021/10/31 17:22:22;;;;;;;3.53;2.30;;;;;;;;;;10361568;28;20044;-61
2021/10/31 17:27:20;;;;;;;3.40;2.30;;;;;;;;;;10370809;28;20443;-61
2021/10/31 17:32:17;;;;;;;4.13;3.00;;;;;;;;;;10362326;28;20406;-61
2021/10/31 17:37:15;;;;;;;3.93;2.77;;;;;;;;;;10367189;28;20654;-61
2021/10/31 17:42:12;;;;;;;5.67;2.97;;;;;;;;;;10354170;28;20063;-60
2021/10/31 17:47:10;;;;;;;5.43;3.10;;;;;;;;;;10355259;28;20298;-60
2021/10/31 17:52:07;;;;;;;4.37;2.83;;;;;;;;;;10355420;28;20033;-60
2021/10/31 17:57:05;;;;;;;5.77;2.80;;;;;;;;;;10357081;28;20102;-60
2021/10/31 18:02:02;;;;;;;4.17;2.93;;;;;;;;;;10361252;28;20032;-60
2021/10/31 18:07:00;;;;;;;3.97;2.70;;;;;;;;;;10359304;28;20032;-61
2021/10/31 18:11:58;;;;;;;3.40;2.10;;;;;;;;;;10364022;28;20051;-62
2021/10/31 18:16:56;;;;;;;6.30;3.00;;;;;;;;;;10361464;28;20393;-60
2021/10/31 18:21:54;;;;;;;4.20;2.53;;;;;;;;;;10364920;28;20044;-61
2021/10/31 18:26:51;;;;;;;4.00;2.70;;;;;;;;;;10378993;28;20036;-61
2021/10/31 18:31:49;;;;;;;3.77;2.40;;;;;;;;;;10385565;28;20036;-62
2021/10/31 18:36:49;;;;;;;4.37;3.10;;;;;;;;;;10381862;28;20132;-60
2021/10/31 18:41:50;;;;;;;5.07;3.33;;;;;;;;;;10373446;28;20158;-61
2021/10/31 18:46:47;;;;;;;3.85;2.90;;;;;;;;;;10377640;28;20036;-61
2021/10/31 18:51:45;;;;;;;3.80;2.70;;;;;;;;;;10381622;28;20032;-61
2021/10/31 18:56:42;;;;;;;5.77;3.37;;;;;;;;;;10380822;28;20047;-61
2021/10/31 19:01:40;;;;;;;3.93;2.83;;;;;;;;;;10380996;28;20066;-61
2021/10/31 19:06:37;;;;;;;4.63;3.00;;;;;;;;;;10377428;28;20043;-61
2021/10/31 19:11:35;;;;;;;4.77;3.50;;;;;;;;;;10369021;28;20037;-61
2021/10/31 19:16:33;;;;;;;8.10;2.97;;;;;;;;;;10378839;28;20035;-62
2021/10/31 19:21:33;;;;;;;4.60;3.13;;;;;;;;;;10373636;28;20040;-61
2021/10/31 19:26:39;;;;;;;5.07;2.78;;;;;;;;;;10368348;28;20044;-61
2021/10/31 19:31:38;;;;;;;5.03;2.83;;;;;;;;;;10367450;28;20080;-61
2021/10/31 19:36:38;;;;;;;2.90;2.58;;;;;;;;;;10377020;28;20136;-61
2021/10/31 19:41:37;;;;;;;3.20;2.10;;;;;;;;;;10365120;28;20063;-61
2021/10/31 19:46:35;;;;;;;2.63;1.85;;;;;;;;;;10373376;28;20055;-61
2021/10/31 19:51:32;;;;;;;2.80;1.67;;;;;;;;;;10370676;28;20040;-60
2021/10/31 19:56:34;;;;;;;7.23;2.40;;;;;;;;;;10357492;28;20055;-60
2021/10/31 20:01:31;;;;;;;4.13;1.50;;;;;;;;;;10373208;28;20040;-61
2021/10/31 20:06:30;;;;;;;3.77;2.00;;;;;;;;;;10372959;28;20041;-61
2021/10/31 20:11:28;;;;;;;3.60;2.20;;;;;;;;;;10367939;28;20095;-62
2021/10/31 20:16:28;;;;;;;3.45;1.70;;;;;;;;;;10375054;28;20044;-61
2021/10/31 20:21:26;;;;;;;3.03;1.57;;;;;;;;;;10368195;28;20675;-61
2021/10/31 20:26:23;;;;;;;2.50;1.60;;;;;;;;;;10364354;28;20033;-59
2021/10/31 20:31:27;;;;;;;2.38;1.60;;;;;;;;;;10362049;28;20412;-62
2021/10/31 20:36:26;;;;;;;3.50;2.00;;;;;;;;;;10380308;28;20039;-62
2021/10/31 20:41:25;;;;;;;2.17;1.65;;;;;;;;;;10381670;28;20051;-63
2021/10/31 20:46:24;;;;;;;2.55;1.63;;;;;;;;;;10382060;28;20046;-62
2021/10/31 20:51:21;;;;;;;1.38;1.20;;;;;;;;;;10383917;28;21662;-60
2021/10/31 20:56:21;;;;;;;1.97;1.70;;;;;;;;;;10386130;28;20086;-59
2021/10/31 21:01:19;;;;;;;1.70;1.52;;;;;;;;;;10386335;28;20616;-60
2021/10/31 21:06:18;;;;;;;1.70;1.60;;;;;;;;;;10388650;28;20040;-60
2021/10/31 21:11:18;;;;;;;;;;;;;;;;;;10380238;28;20123;-61
2021/10/31 21:16:17;;;;;;;2.42;1.88;;;;;;;;;;10374268;28;20715;-61
2021/10/31 21:21:18;;;;;;;1.70;1.60;;;;;;;;;;10381563;28;20533;-60
2021/10/31 21:26:17;;;;;;;2.40;1.55;;;;;;;;;;10389800;28;20458;-61
2021/10/31 21:31:14;;;;;;;1.30;1.20;;;;;;;;;;10378583;28;20139;-61
2021/10/31 21:36:13;;;;;;;2.07;1.73;;;;;;;;;;10362438;28;20040;-61
2021/10/31 21:41:13;;;;;;;4.38;1.52;;;;;;;;;;10331718;28;20606;-61
2021/10/31 21:46:15;;;;;;;4.88;1.65;;;;;;;;;;10345352;28;20039;-63
2021/10/31 21:51:13;;;;;;;14.73;2.15;;;;;;;;;;10348978;28;20044;-62
2021/10/31 21:56:10;;;;;;;10.90;1.10;;;;;;;;;;10374103;28;20123;-61
2021/10/31 22:01:08;;;;;;;12.77;1.87;;;;;;;;;;10369996;28;20054;-63
2021/10/31 22:06:05;;;;;;;3.67;1.63;;;;;;;;;;10376530;28;20093;-63
2021/10/31 22:11:02;;;;;;;4.63;0.77;;;;;;;;;;10375876;28;20029;-64
2021/10/31 22:16:00;;;;;;;2.63;0.70;;;;;;;;;;10372704;28;20028;-62
2021/10/31 22:20:57;;;;;;;11.30;0.90;;;;;;;;;;10376281;28;20044;-63
2021/10/31 22:25:55;;;;;;;10.87;1.23;;;;;;;;;;10365339;28;20517;-64
2021/10/31 22:30:52;;;;;;;1.70;0.47;;;;;;;;;;10377487;28;20043;-63
2021/10/31 22:35:49;;;;;;;4.03;0.50;;;;;;;;;;10382280;28;20405;-66
2021/10/31 22:40:47;;;;;;;2.40;0.40;;;;;;;;;;10379566;28;20052;-63
2021/10/31 22:45:45;;;;;;;3.67;0.60;;;;;;;;;;10374344;28;20036;-64
2021/10/31 22:50:42;;;;;;;0.35;0.35;;;;;;;;;;10385654;28;20044;-64
2021/10/31 22:55:39;;;;;;;0.10;0.10;;;;;;;;;;10377733;28;20117;-62
2021/10/31 23:00:46;;;;;;;0.10;0.10;;;;;;;;;;10378552;28;20032;-64
2021/10/31 23:05:44;;;;;;;0.13;0.13;;;;;;;;;;10377590;28;20039;-65
2021/10/31 23:10:42;;;;;;;0.70;0.20;;;;;;;;;;10367760;28;20036;-65
2021/10/31 23:15:40;;;;;;;1.95;0.40;;;;;;;;;;10371639;28;20127;-65
2021/10/31 23:20:38;;;;;;;0.50;0.50;;;;;;;;;;10375906;28;20032;-64
2021/10/31 23:25:35;;;;;;;1.13;0.10;;;;;;;;;;10377061;28;20037;-64
2021/10/31 23:30:33;;;;;;;0.63;0.60;;;;;;;;;;10366379;28;20378;-64
2021/10/31 23:35:31;;;;;;;0.03;0.03;;;;;;;;;;10369266;28;20113;-65
2021/10/31 23:40:28;;;;;;;1.17;0.40;;;;;;;;;;10369536;28;20567;-64
2021/10/31 23:45:27;;;;;;;0.20;0.20;;;;;;;;;;10370636;28;20035;-63
2021/10/31 23:50:25;;;;;;;0.35;0.28;;;;;;;;;;10364175;28;20639;-62
2021/10/31 23:55:23;;;;;;;0.55;0.38;;;;;;;;;;10366265;28;20493;-63
